Time;durP1;ratioP1;P1;durP2;ratioP2;P2;SDS_P1;SDS_P2;PMS_P1;PMS_P2;Temp;Humidity;BMP_temperature;BMP_pressure;BME280_temperature;BME280_humidity;BME280_pressure;Samples;Min_cycle;Max_cycle;Signal;HPM_P1;HPM_P2
2021/11/11 00:00:16;;;;;;;17.83;12.80;;;20.00;99.90;;;;;;5015739;28;20022;-80
2021/11/11 00:02:44;;;;;;;21.00;12.70;;;20.00;99.90;;;;;;5014668;28;20555;-80
2021/11/11 00:05:12;;;;;;;20.60;13.05;;;19.80;99.90;;;;;;5014807;28;20022;-80
2021/11/11 00:07:40;;;;;;;18.95;12.40;;;19.70;99.90;;;;;;5014423;28;20032;-80
2021/11/11 00:10:10;;;;;;;17.83;12.32;;;19.80;99.90;;;;;;5016260;28;20479;-79
2021/11/11 00:12:37;;;;;;;16.58;12.50;;;19.90;99.90;;;;;;5014614;28;20372;-78
2021/11/11 00:15:07;;;;;;;15.57;12.90;;;19.80;99.90;;;;;;5015945;28;20022;-79
2021/11/11 00:17:35;;;;;;;19.75;12.48;;;19.70;99.90;;;;;;5015667;28;20105;-78
2021/11/11 00:20:05;;;;;;;19.77;12.63;;;19.70;99.90;;;;;;5015845;28;20037;-78
2021/11/11 00:22:33;;;;;;;18.83;12.45;;;19.90;99.90;;;;;;5016161;28;20018;-79
2021/11/11 00:25:00;;;;;;;22.40;13.55;;;20.00;99.90;;;;;;5015807;28;20033;-76
2021/11/11 00:27:28;;;;;;;15.45;11.80;;;20.10;99.90;;;;;;5015010;28;20022;-78
2021/11/11 00:29:55;;;;;;;18.90;12.80;;;19.90;99.90;;;;;;5015804;28;20033;-78
2021/11/11 00:32:22;;;;;;;18.45;12.73;;;19.90;99.90;;;;;;5015201;28;20032;-78
2021/11/11 00:34:53;;;;;;;21.48;13.07;;;19.80;99.90;;;;;;5014244;28;20041;-78
2021/11/11 00:37:22;;;;;;;19.92;12.27;;;19.70;99.90;;;;;;5014112;28;20033;-78
2021/11/11 00:39:50;;;;;;;22.27;11.90;;;19.80;99.90;;;;;;5015204;28;20461;-78
2021/11/11 00:42:19;;;;;;;20.83;12.27;;;19.80;99.90;;;;;;5015174;28;20025;-78
2021/11/11 00:44:48;;;;;;;18.08;11.82;;;19.80;99.90;;;;;;5014643;28;20022;-78
2021/11/11 00:47:17;;;;;;;20.08;12.27;;;20.10;99.90;;;;;;5014525;28;20022;-81
2021/11/11 00:49:45;;;;;;;18.45;12.00;;;20.30;99.90;;;;;;5014299;28;20144;-81
2021/11/11 00:52:13;;;;;;;18.58;12.20;;;20.40;99.90;;;;;;5016448;28;20025;-79
2021/11/11 00:54:42;;;;;;;22.58;13.23;;;20.20;99.90;;;;;;5015403;28;20084;-79
2021/11/11 00:57:09;;;;;;;22.30;13.40;;;20.10;99.90;;;;;;5015509;28;20495;-83
2021/11/11 00:59:40;;;;;;;17.48;12.18;;;20.20;99.90;;;;;;5018076;28;20037;-80
2021/11/11 01:02:08;;;;;;;17.70;12.30;;;20.00;99.90;;;;;;5015959;28;20410;-80
2021/11/11 01:04:38;;;;;;;16.83;12.45;;;20.00;99.90;;;;;;5014919;28;20438;-79
2021/11/11 01:07:07;;;;;;;19.58;12.63;;;20.00;99.90;;;;;;5018626;28;20379;-79
2021/11/11 01:09:35;;;;;;;20.70;12.10;;;20.10;99.90;;;;;;5020705;28;20029;-78
2021/11/11 01:12:03;;;;;;;15.90;11.60;;;19.90;99.90;;;;;;5016890;28;20442;-78
2021/11/11 01:14:31;;;;;;;18.90;11.90;;;19.90;99.90;;;;;;5017391;28;20037;-80
2021/11/11 01:16:58;;;;;;;17.77;12.15;;;19.80;99.90;;;;;;5018384;28;20049;-80
2021/11/11 01:19:25;;;;;;;18.38;12.63;;;19.80;99.90;;;;;;5018831;28;20025;-78
2021/11/11 01:21:53;;;;;;;16.52;11.55;;;20.00;99.90;;;;;;5017981;28;20057;-80
2021/11/11 01:24:21;;;;;;;19.02;11.20;;;19.70;99.90;;;;;;5020893;28;20067;-80
2021/11/11 01:26:48;;;;;;;12.75;10.80;;;19.80;99.90;;;;;;5018013;28;20105;-80
2021/11/11 01:29:16;;;;;;;19.08;11.10;;;20.00;99.90;;;;;;5019477;28;20033;-79
2021/11/11 01:31:43;;;;;;;17.92;11.25;;;20.00;99.90;;;;;;5017631;28;20030;-79
2021/11/11 01:34:11;;;;;;;17.17;10.73;;;19.80;99.90;;;;;;5016880;28;20028;-80
2021/11/11 01:36:39;;;;;;;15.65;10.82;;;19.90;99.90;;;;;;5013941;28;20026;-82
2021/11/11 01:39:07;;;;;;;18.83;11.68;;;20.00;99.90;;;;;;5014011;28;20042;-78
2021/11/11 01:41:35;;;;;;;15.63;11.75;;;19.80;99.90;;;;;;5013820;28;20384;-78
2021/11/11 01:44:03;;;;;;;16.73;10.85;;;19.70;99.90;;;;;;5014682;28;20026;-80
2021/11/11 01:46:30;;;;;;;15.20;10.98;;;19.90;99.90;;;;;;5015972;28;20475;-83
2021/11/11 01:48:58;;;;;;;15.13;10.82;;;20.10;99.90;;;;;;5016367;28;20030;-80
2021/11/11 01:51:25;;;;;;;19.48;10.60;;;20.20;99.90;;;;;;5016687;28;20090;-80
2021/11/11 01:53:54;;;;;;;20.35;11.73;;;20.10;99.90;;;;;;5015017;28;20026;-77
2021/11/11 01:56:23;;;;;;;21.70;12.27;;;20.00;99.90;;;;;;5016632;28;20454;-77
2021/11/11 01:58:51;;;;;;;19.70;11.52;;;19.70;99.90;;;;;;5018489;28;20028;-77
2021/11/11 02:01:20;;;;;;;19.20;12.27;;;19.60;99.90;;;;;;5018751;28;20052;-78
2021/11/11 02:03:48;;;;;;;14.88;11.70;;;19.30;99.90;;;;;;5019259;28;20502;-78
2021/11/11 02:06:15;;;;;;;23.33;12.30;;;19.20;99.90;;;;;;5018586;28;20029;-77
2021/11/11 02:08:44;;;;;;;17.98;12.05;;;19.10;99.90;;;;;;5017330;28;20057;-77
2021/11/11 02:11:12;;;;;;;18.10;12.20;;;19.10;99.90;;;;;;5017596;28;20033;-77
2021/11/11 02:13:40;;;;;;;19.00;12.23;;;19.10;99.90;;;;;;5017021;28;20033;-77
2021/11/11 02:16:09;;;;;;;22.73;12.73;;;19.10;99.90;;;;;;5018148;28;20368;-78
2021/11/11 02:18:36;;;;;;;18.17;12.38;;;19.10;99.90;;;;;;5017995;28;20399;-77
2021/11/11 02:21:04;;;;;;;18.05;11.98;;;19.10;99.90;;;;;;5018252;28;20029;-77
2021/11/11 02:23:33;;;;;;;20.98;11.73;;;19.00;99.90;;;;;;5018180;28;20018;-79
2021/11/11 02:26:00;;;;;;;18.58;12.02;;;18.90;99.90;;;;;;5018273;28;20084;-77
2021/11/11 02:28:28;;;;;;;21.75;12.60;;;19.10;99.90;;;;;;5016972;28;20049;-78
2021/11/11 02:30:56;;;;;;;17.50;11.15;;;19.10;99.90;;;;;;5018414;28;20021;-78
2021/11/11 02:33:26;;;;;;;15.77;11.50;;;18.90;99.90;;;;;;5016786;28;20030;-78
2021/11/11 02:35:53;;;;;;;19.42;12.10;;;19.00;99.90;;;;;;5017075;28;20573;-78
2021/11/11 02:38:22;;;;;;;21.95;12.10;;;18.90;99.90;;;;;;5017834;28;20509;-78
2021/11/11 02:40:49;;;;;;;16.27;12.32;;;19.00;99.90;;;;;;5017443;28;20069;-78
2021/11/11 02:43:18;;;;;;;16.92;12.15;;;19.10;99.90;;;;;;5018010;28;20029;-78
2021/11/11 02:45:48;;;;;;;17.35;12.30;;;19.20;99.90;;;;;;5018027;28;20022;-77
2021/11/11 02:48:19;;;;;;;20.05;12.63;;;19.10;99.90;;;;;;5018467;28;20045;-78
2021/11/11 02:50:47;;;;;;;22.23;12.82;;;19.20;99.90;;;;;;5017981;28;20560;-78
2021/11/11 02:53:16;;;;;;;17.65;12.20;;;19.00;99.90;;;;;;5016643;28;20026;-77
2021/11/11 02:55:44;;;;;;;17.25;11.90;;;19.00;99.90;;;;;;5016443;28;20050;-80
2021/11/11 02:58:12;;;;;;;21.33;11.45;;;19.00;99.90;;;;;;5017972;28;20387;-81
2021/11/11 03:00:48;;;;;;;20.35;10.85;;;19.00;99.90;;;;;;5000956;28;20038;-80
2021/11/11 03:03:15;;;;;;;22.58;11.00;;;19.00;99.90;;;;;;5016251;28;20472;-81
2021/11/11 03:05:42;;;;;;;18.42;11.25;;;18.90;99.90;;;;;;5017624;28;20029;-81
2021/11/11 03:08:10;;;;;;;15.18;11.38;;;18.90;99.90;;;;;;5017164;28;20026;-79
2021/11/11 03:10:40;;;;;;;18.90;11.88;;;18.70;99.90;;;;;;5017805;28;20479;-80
2021/11/11 03:13:09;;;;;;;16.88;11.70;;;18.70;99.90;;;;;;5017237;28;20499;-81
2021/11/11 03:15:37;;;;;;;16.55;10.60;;;18.70;99.90;;;;;;5019697;28;20057;-79
2021/11/11 03:18:05;;;;;;;16.38;11.20;;;18.70;99.90;;;;;;5016233;28;20037;-78
2021/11/11 03:20:33;;;;;;;20.67;11.60;;;18.70;99.90;;;;;;5017074;28;20021;-78
2021/11/11 03:23:01;;;;;;;18.98;10.90;;;18.80;99.90;;;;;;5016177;28;20028;-80
2021/11/11 03:25:33;;;;;;;16.80;11.48;;;18.70;99.90;;;;;;5018462;28;20030;-81
2021/11/11 03:28:00;;;;;;;15.15;11.50;;;18.60;99.90;;;;;;5019975;28;20022;-80
2021/11/11 03:30:28;;;;;;;16.45;12.48;;;18.60;99.90;;;;;;5016331;28;20136;-80
2021/11/11 03:32:57;;;;;;;20.63;12.38;;;18.80;99.90;;;;;;5016216;28;20384;-79
2021/11/11 03:35:26;;;;;;;22.83;12.77;;;18.60;99.90;;;;;;5015349;28;20054;-80
2021/11/11 03:37:56;;;;;;;17.40;12.20;;;18.70;99.90;;;;;;5016693;28;20025;-79
2021/11/11 03:40:26;;;;;;;18.55;12.48;;;18.60;99.90;;;;;;5016492;28;20391;-79
2021/11/11 03:42:55;;;;;;;19.95;11.60;;;18.50;99.90;;;;;;5016739;28;20080;-79
2021/11/11 03:45:23;;;;;;;17.67;12.35;;;18.50;99.90;;;;;;5015330;28;20025;-79
2021/11/11 03:47:51;;;;;;;15.70;12.75;;;18.40;99.90;;;;;;5015267;28;20026;-79
2021/11/11 03:50:19;;;;;;;16.27;12.30;;;18.50;99.90;;;;;;5016557;28;20021;-79
2021/11/11 03:52:49;;;;;;;20.23;12.43;;;18.40;99.90;;;;;;5016854;28;20040;-78
2021/11/11 03:55:22;;;;;;;21.35;13.32;;;18.30;99.90;;;;;;5014767;28;20026;-78
2021/11/11 03:57:51;;;;;;;18.67;13.60;;;18.20;99.90;;;;;;5015026;28;20033;-78
2021/11/11 04:00:19;;;;;;;20.85;13.70;;;18.10;99.90;;;;;;4999276;28;20125;-77
2021/11/11 04:02:48;;;;;;;18.83;13.93;;;18.10;99.90;;;;;;5014917;28;20121;-79
2021/11/11 04:05:16;;;;;;;22.10;14.30;;;18.10;99.90;;;;;;5016422;28;20029;-81
2021/11/11 04:07:46;;;;;;;18.38;13.90;;;18.10;99.90;;;;;;5018498;28;20033;-83
2021/11/11 04:10:14;;;;;;;18.67;14.88;;;18.10;99.90;;;;;;5020126;28;20471;-80
2021/11/11 04:12:41;;;;;;;21.50;14.88;;;18.10;99.90;;;;;;5022194;28;20117;-81
2021/11/11 04:15:12;;;;;;;19.85;15.13;;;18.00;99.90;;;;;;5019748;28;20483;-80
2021/11/11 04:17:39;;;;;;;22.67;15.68;;;17.90;99.90;;;;;;5020454;28;20018;-80
2021/11/11 04:20:09;;;;;;;22.42;16.02;;;17.80;99.90;;;;;;5021902;28;20395;-80
2021/11/11 04:22:37;;;;;;;25.90;16.42;;;17.70;99.90;;;;;;5021593;28;20033;-81
2021/11/11 04:25:07;;;;;;;19.38;16.13;;;17.60;99.90;;;;;;5019254;28;20475;-81
2021/11/11 04:27:42;;;;;;;25.77;16.50;;;17.60;99.90;;;;;;5019451;28;20014;-79
2021/11/11 04:30:28;;;;;;;18.50;16.70;;;17.50;99.90;;;;;;5015431;28;20026;-76
2021/11/11 04:32:55;;;;;;;19.20;16.67;;;17.50;99.90;;;;;;5016775;28;20061;-77
2021/11/11 04:35:23;;;;;;;27.25;16.77;;;17.50;99.90;;;;;;5013978;28;20491;-77
2021/11/11 04:38:01;;;;;;;19.98;17.45;;;17.40;99.90;;;;;;5015118;28;20022;-78
2021/11/11 04:41:03;;;;;;;20.70;17.73;;;17.40;99.90;;;;;;5015510;28;20018;-78
2021/11/11 04:46:25;;;;;;;23.85;17.85;;;17.50;99.90;;;;;;5016780;28;20091;-78
2021/11/11 04:49:29;;;;;;;21.25;18.35;;;17.40;99.90;;;;;;5015141;28;20034;-78
2021/11/11 05:05:27;;;;;;;23.85;19.48;;;17.30;99.90;;;;;;5015194;28;20380;-78
2021/11/11 05:07:56;;;;;;;19.55;17.92;;;17.30;99.90;;;;;;5016767;28;20026;-78
2021/11/11 05:10:24;;;;;;;23.17;18.80;;;17.20;99.90;;;;;;5017403;28;20026;-80
2021/11/11 05:12:52;;;;;;;20.40;18.30;;;17.20;99.90;;;;;;5016501;28;20034;-78
2021/11/11 05:15:20;;;;;;;22.67;18.65;;;17.20;99.90;;;;;;5016645;28;20022;-80
2021/11/11 05:17:47;;;;;;;20.50;18.40;;;17.20;99.90;;;;;;5019812;28;20061;-81
2021/11/11 05:20:17;;;;;;;27.50;19.45;;;17.20;99.90;;;;;;5018238;28;20017;-79
2021/11/11 05:22:45;;;;;;;21.60;18.60;;;17.20;99.90;;;;;;5018493;28;20029;-80
2021/11/11 05:25:15;;;;;;;20.83;18.70;;;17.10;99.90;;;;;;5017675;28;20022;-80
2021/11/11 05:27:45;;;;;;;19.95;17.45;;;17.10;99.90;;;;;;5019211;28;20018;-79
2021/11/11 05:30:14;;;;;;;22.48;18.05;;;17.10;99.90;;;;;;5017136;28;20510;-79
2021/11/11 05:32:42;;;;;;;20.60;18.05;;;17.00;99.90;;;;;;5017834;28;20053;-79
2021/11/11 05:35:12;;;;;;;22.10;18.00;;;17.00;99.90;;;;;;5017193;28;20026;-79
2021/11/11 05:37:39;;;;;;;20.33;18.17;;;17.00;99.90;;;;;;5018944;28;20364;-80
2021/11/11 05:40:09;;;;;;;29.80;18.95;;;16.90;99.90;;;;;;5021991;28;20034;-80
2021/11/11 05:42:37;;;;;;;22.83;19.30;;;16.90;99.90;;;;;;5019997;28;20116;-81
2021/11/11 05:45:07;;;;;;;25.92;19.55;;;16.90;99.90;;;;;;5019878;28;20036;-82
2021/11/11 05:47:34;;;;;;;23.58;20.15;;;16.90;99.90;;;;;;5023900;28;20052;-82
2021/11/11 05:50:02;;;;;;;21.95;19.88;;;16.90;99.90;;;;;;5023973;28;20083;-81
2021/11/11 05:52:30;;;;;;;22.23;19.90;;;16.90;99.90;;;;;;5019328;28;20459;-81
2021/11/11 05:54:58;;;;;;;21.67;19.30;;;16.90;99.90;;;;;;5017817;28;20033;-80
2021/11/11 05:57:25;;;;;;;24.80;20.08;;;16.90;99.90;;;;;;5014964;28;20546;-83
2021/11/11 05:59:53;;;;;;;23.15;20.73;;;16.80;99.90;;;;;;5017156;28;20399;-82
2021/11/11 06:02:21;;;;;;;23.38;20.20;;;16.80;99.90;;;;;;5016053;28;20026;-81
2021/11/11 06:04:48;;;;;;;23.05;20.33;;;16.90;99.90;;;;;;5019870;28;20032;-83
2021/11/11 06:07:16;;;;;;;25.85;20.27;;;16.80;99.90;;;;;;5020984;28;20026;-83
2021/11/11 06:09:43;;;;;;;24.05;20.00;;;16.80;99.90;;;;;;5020576;28;20033;-83
2021/11/11 06:12:10;;;;;;;23.73;19.90;;;16.70;99.90;;;;;;5020237;28;20018;-83
2021/11/11 06:14:38;;;;;;;23.65;20.45;;;16.70;99.90;;;;;;5020527;28;20032;-82
2021/11/11 06:17:06;;;;;;;23.17;20.80;;;16.60;99.90;;;;;;5018298;28;20443;-83
2021/11/11 06:19:41;;;;;;;23.40;20.73;;;16.60;99.90;;;;;;5017390;28;20034;-82
2021/11/11 06:22:08;;;;;;;24.13;20.45;;;16.60;99.90;;;;;;5021496;28;20029;-81
2021/11/11 06:24:36;;;;;;;22.13;19.88;;;16.70;99.90;;;;;;5016336;28;20383;-82
2021/11/11 06:27:04;;;;;;;26.70;21.00;;;16.60;99.90;;;;;;5017052;28;20476;-82
2021/11/11 06:29:31;;;;;;;21.27;18.95;;;16.60;99.90;;;;;;5017672;28;20022;-84
2021/11/11 06:31:58;;;;;;;22.45;20.30;;;16.70;99.90;;;;;;5016953;28;20082;-84
2021/11/11 06:34:26;;;;;;;21.77;19.73;;;16.70;99.90;;;;;;5016205;28;20037;-83
2021/11/11 06:36:53;;;;;;;21.63;19.52;;;16.70;99.90;;;;;;5017871;28;20022;-84
2021/11/11 06:39:20;;;;;;;21.15;19.02;;;16.70;99.90;;;;;;5014717;28;20487;-83
2021/11/11 06:41:48;;;;;;;20.75;18.95;;;16.60;99.90;;;;;;5017812;28;20382;-83
2021/11/11 06:44:22;;;;;;;20.50;18.83;;;16.70;99.90;;;;;;5018536;28;20020;-84
2021/11/11 06:46:51;;;;;;;22.25;19.58;;;16.80;99.90;;;;;;5024097;28;20006;-82
2021/11/11 06:49:19;;;;;;;23.30;19.40;;;16.80;99.90;;;;;;5020525;28;20367;-84
2021/11/11 06:51:46;;;;;;;22.70;18.02;;;16.70;99.90;;;;;;5021625;28;20026;-83
2021/11/11 06:54:14;;;;;;;20.10;18.02;;;16.70;99.90;;;;;;5020404;28;20125;-84
2021/11/11 06:56:41;;;;;;;22.13;19.73;;;16.70;99.90;;;;;;5019116;28;20038;-85
2021/11/11 06:59:09;;;;;;;22.77;19.15;;;16.70;99.90;;;;;;5019194;28;20025;-80
2021/11/11 07:01:37;;;;;;;20.80;18.58;;;16.80;99.90;;;;;;5018683;28;20595;-83
2021/11/11 07:04:04;;;;;;;20.48;18.02;;;16.90;99.90;;;;;;5018417;28;20014;-80
2021/11/11 07:06:31;;;;;;;20.45;17.17;;;16.80;99.90;;;;;;5022321;28;20041;-79
2021/11/11 07:08:59;;;;;;;19.77;17.50;;;16.80;99.90;;;;;;5020695;28;20029;-78
2021/11/11 07:11:26;;;;;;;19.08;17.08;;;16.80;99.90;;;;;;5018057;28;20513;-78
2021/11/11 07:13:54;;;;;;;19.67;17.67;;;16.80;99.90;;;;;;5016915;28;20037;-79
2021/11/11 07:16:21;;;;;;;19.05;17.13;;;16.80;99.90;;;;;;5017387;28;20029;-79
2021/11/11 07:18:48;;;;;;;21.58;17.08;;;16.80;99.90;;;;;;5016032;28;20026;-79
2021/11/11 07:21:16;;;;;;;24.45;18.13;;;16.80;99.90;;;;;;5016985;28;20101;-75
2021/11/11 07:23:44;;;;;;;18.42;16.55;;;16.80;99.90;;;;;;5017387;28;20026;-80
2021/11/11 07:26:12;;;;;;;20.25;17.80;;;16.80;99.90;;;;;;5015752;28;20460;-79
2021/11/11 07:28:39;;;;;;;23.25;17.52;;;16.80;99.90;;;;;;5017423;28;20029;-80
2021/11/11 07:31:07;;;;;;;20.02;16.90;;;16.70;99.90;;;;;;5016904;28;20022;-80
2021/11/11 07:33:34;;;;;;;22.30;17.30;;;16.80;99.90;;;;;;5015605;28;20558;-80
2021/11/11 07:36:03;;;;;;;22.83;17.52;;;16.80;99.90;;;;;;5015994;28;20376;-79
2021/11/11 07:38:32;;;;;;;19.17;16.75;;;16.80;99.90;;;;;;5016603;28;20497;-80
2021/11/11 07:40:59;;;;;;;21.20;17.52;;;16.80;99.90;;;;;;5015622;28;20033;-81
2021/11/11 07:43:27;;;;;;;22.75;16.70;;;16.90;99.90;;;;;;5017148;28;20022;-80
2021/11/11 07:45:54;;;;;;;21.85;17.52;;;16.80;99.90;;;;;;5016856;28;20020;-81
2021/11/11 07:48:22;;;;;;;19.20;16.70;;;16.80;99.90;;;;;;5016653;28;20037;-80
2021/11/11 07:50:51;;;;;;;22.40;16.38;;;16.90;99.90;;;;;;5016590;28;20368;-80
2021/11/11 07:53:19;;;;;;;22.90;16.67;;;16.80;99.90;;;;;;5015816;28;20022;-80
2021/11/11 07:55:46;;;;;;;19.35;16.55;;;16.80;99.90;;;;;;5014130;28;20038;-79
2021/11/11 07:58:14;;;;;;;18.08;16.27;;;16.80;99.90;;;;;;5016243;28;20034;-79
2021/11/11 08:00:41;;;;;;;17.83;15.75;;;16.80;99.90;;;;;;5015551;28;20522;-80
2021/11/11 08:03:09;;;;;;;18.90;16.45;;;16.80;99.90;;;;;;5016614;28;20018;-80
2021/11/11 08:05:37;;;;;;;24.73;16.58;;;16.90;99.90;;;;;;5016362;28;20137;-80
2021/11/11 08:08:05;;;;;;;19.08;16.73;;;16.80;99.90;;;;;;5015231;28;20129;-78
2021/11/11 08:10:34;;;;;;;19.45;17.63;;;16.80;99.90;;;;;;5015030;28;20108;-79
2021/11/11 08:13:03;;;;;;;21.70;17.52;;;16.80;99.90;;;;;;5016191;28;20022;-79
2021/11/11 08:15:30;;;;;;;24.05;17.67;;;16.60;99.90;;;;;;5015294;28;20021;-79
2021/11/11 08:17:58;;;;;;;18.37;16.40;;;16.60;99.90;;;;;;5014985;28;20022;-78
2021/11/11 08:20:26;;;;;;;19.08;17.00;;;16.50;99.90;;;;;;5015417;28;20026;-76
2021/11/11 08:22:53;;;;;;;18.13;16.63;;;16.50;99.90;;;;;;5015637;28;20472;-76
2021/11/11 08:25:22;;;;;;;23.13;18.30;;;16.40;99.90;;;;;;5015204;28;20014;-75
2021/11/11 08:27:49;;;;;;;19.85;17.85;;;16.30;99.90;;;;;;5016851;28;20022;-79
2021/11/11 08:30:19;;;;;;;19.65;17.63;;;16.30;99.90;;;;;;5016238;28;20033;-77
2021/11/11 08:32:50;;;;;;;20.77;17.63;;;16.20;99.90;;;;;;5016001;28;20034;-81
2021/11/11 08:35:18;;;;;;;20.55;18.42;;;16.10;99.90;;;;;;4999047;28;20107;-79
2021/11/11 08:37:46;;;;;;;23.85;18.98;;;16.00;99.90;;;;;;5016086;28;20029;-79
2021/11/11 08:40:16;;;;;;;24.20;19.23;;;16.00;99.90;;;;;;5015786;28;20048;-77
2021/11/11 08:42:46;;;;;;;21.17;18.95;;;16.00;99.90;;;;;;5014691;28;20116;-80
2021/11/11 08:45:14;;;;;;;22.42;20.10;;;16.00;99.90;;;;;;5014962;28;20026;-78
2021/11/11 08:47:41;;;;;;;21.90;19.48;;;16.00;99.90;;;;;;5014246;28;20076;-76
2021/11/11 08:50:11;;;;;;;27.10;20.83;;;16.00;99.90;;;;;;5015630;28;20530;-78
2021/11/11 08:52:54;;;;;;;25.20;21.38;;;16.00;99.90;;;;;;5014432;28;20116;-78
2021/11/11 08:55:24;;;;;;;23.00;20.65;;;15.90;99.90;;;;;;5014085;28;20043;-78
2021/11/11 08:57:54;;;;;;;25.80;22.85;;;15.90;99.90;;;;;;5015238;28;20025;-82
2021/11/11 09:00:24;;;;;;;24.30;22.00;;;15.90;99.90;;;;;;5017136;28;20079;-83
2021/11/11 09:02:54;;;;;;;25.63;23.00;;;15.90;99.90;;;;;;5001144;28;20022;-80
2021/11/11 09:05:24;;;;;;;26.85;24.23;;;15.90;99.90;;;;;;5014947;28;20081;-79
2021/11/11 09:07:52;;;;;;;26.30;23.08;;;15.90;99.90;;;;;;5014867;28;20103;-80
2021/11/11 09:10:21;;;;;;;26.10;23.58;;;15.80;99.90;;;;;;5014776;28;20044;-82
2021/11/11 09:13:04;;;;;;;25.65;23.13;;;15.90;99.90;;;;;;5015692;28;20080;-81
2021/11/11 09:15:32;;;;;;;26.83;23.10;;;15.80;99.90;;;;;;5015475;28;20018;-80
2021/11/11 09:18:03;;;;;;;26.00;23.55;;;15.80;99.90;;;;;;5014303;28;20054;-81
2021/11/11 09:20:32;;;;;;;25.65;23.40;;;15.70;99.90;;;;;;5014239;28;20080;-82
2021/11/11 09:23:01;;;;;;;25.55;23.05;;;15.80;99.90;;;;;;5014125;28;20026;-80
2021/11/11 09:25:30;;;;;;;25.70;23.05;;;15.80;99.90;;;;;;5015226;28;20022;-82
2021/11/11 09:28:03;;;;;;;27.98;23.40;;;15.80;99.90;;;;;;5015467;28;20014;-80
2021/11/11 09:30:34;;;;;;;26.08;23.38;;;15.70;99.90;;;;;;5014193;28;20022;-83
2021/11/11 09:33:02;;;;;;;27.83;25.23;;;15.70;99.90;;;;;;5015487;28;20030;-80
2021/11/11 09:35:30;;;;;;;26.63;24.20;;;15.70;99.90;;;;;;5013646;28;20068;-80
2021/11/11 09:37:58;;;;;;;35.60;24.75;;;15.70;99.90;;;;;;5013972;28;20026;-80
2021/11/11 09:40:27;;;;;;;27.55;24.67;;;15.70;99.90;;;;;;5014596;28;20367;-82
2021/11/11 09:42:55;;;;;;;30.23;24.88;;;15.60;99.90;;;;;;5014423;28;20041;-80
2021/11/11 09:45:27;;;;;;;26.00;23.27;;;15.60;99.90;;;;;;5013844;28;20419;-80
2021/11/11 09:47:54;;;;;;;27.42;23.65;;;15.60;99.90;;;;;;5013959;28;20022;-79
2021/11/11 09:50:24;;;;;;;25.33;22.60;;;15.50;99.90;;;;;;5015299;28;20043;-79
2021/11/11 09:52:51;;;;;;;24.55;22.13;;;15.50;99.90;;;;;;5014628;28;20022;-79
2021/11/11 10:00:53;;;;;;;34.85;23.65;;;15.30;99.90;;;;;;5014584;28;20029;-77
2021/11/11 10:03:22;;;;;;;27.35;23.23;;;15.30;99.90;;;;;;5012966;28;20521;-78
2021/11/11 10:05:50;;;;;;;30.48;24.50;;;15.30;99.90;;;;;;5014017;28;20036;-78
2021/11/11 10:08:38;;;;;;;27.20;23.42;;;15.40;99.90;;;;;;5014543;28;20037;-78
2021/11/11 10:11:11;;;;;;;25.65;22.98;;;15.40;99.90;;;;;;5014458;28;20026;-78
2021/11/11 10:13:39;;;;;;;25.98;23.23;;;15.30;99.90;;;;;;5013451;28;20030;-78
2021/11/11 10:16:16;;;;;;;28.25;23.88;;;15.30;99.90;;;;;;5013885;28;20675;-77
2021/11/11 10:19:02;;;;;;;27.10;23.00;;;15.40;99.90;;;;;;5016855;28;20489;-77
2021/11/11 10:21:46;;;;;;;30.75;22.67;;;15.30;99.90;;;;;;5018368;28;20022;-78
2021/11/11 10:24:32;;;;;;;26.77;22.55;;;15.40;99.90;;;;;;5018087;28;20021;-78
2021/11/11 10:27:06;;;;;;;31.60;23.00;;;15.40;99.90;;;;;;5016632;28;20084;-78
2021/11/11 10:29:38;;;;;;;27.15;22.20;;;15.30;99.90;;;;;;5016587;28;20068;-78
2021/11/11 10:32:13;;;;;;;27.98;22.25;;;15.30;99.90;;;;;;5017278;28;20026;-80
2021/11/11 10:34:52;;;;;;;29.77;21.60;;;15.30;99.90;;;;;;5017372;28;20034;-79
2021/11/11 10:37:23;;;;;;;33.63;21.95;;;15.30;99.90;;;;;;5016945;28;20048;-78
2021/11/11 10:39:57;;;;;;;32.55;21.55;;;15.20;99.90;;;;;;5018254;28;20057;-78
2021/11/11 10:42:27;;;;;;;34.55;22.45;;;15.20;99.90;;;;;;5018268;28;20022;-78
2021/11/11 10:44:57;;;;;;;27.50;21.73;;;15.20;99.90;;;;;;5018031;28;20018;-79
2021/11/11 10:47:32;;;;;;;30.85;22.52;;;15.20;99.90;;;;;;5018051;28;20383;-79
2021/11/11 10:50:12;;;;;;;30.75;22.52;;;15.10;99.90;;;;;;5017679;28;20360;-78
2021/11/11 10:52:41;;;;;;;28.20;21.77;;;15.10;99.90;;;;;;5016082;28;20030;-78
2021/11/11 10:55:18;;;;;;;25.13;22.20;;;15.10;99.90;;;;;;5017582;28;20026;-80
2021/11/11 10:58:06;;;;;;;32.65;22.75;;;15.10;99.90;;;;;;5018106;28;20034;-79
2021/11/11 11:00:39;;;;;;;24.35;21.85;;;15.00;99.90;;;;;;5017822;28;20034;-77
2021/11/11 11:03:06;;;;;;;29.80;23.15;;;15.00;99.90;;;;;;5016644;28;20109;-78
2021/11/11 11:05:54;;;;;;;25.55;21.80;;;15.00;99.90;;;;;;5016658;28;20095;-79
2021/11/11 11:08:30;;;;;;;28.65;21.75;;;15.00;99.90;;;;;;5016725;28;20026;-79
2021/11/11 11:11:02;;;;;;;26.20;23.27;;;15.00;99.90;;;;;;5017488;28;20108;-79
2021/11/11 11:13:48;;;;;;;26.95;22.60;;;15.00;99.90;;;;;;5015984;28;20482;-78
2021/11/11 11:16:17;;;;;;;29.20;21.50;;;15.00;99.90;;;;;;5016503;28;20184;-78
2021/11/11 11:18:58;;;;;;;30.55;22.27;;;15.00;99.90;;;;;;5015193;28;20030;-79
2021/11/11 11:21:30;;;;;;;36.10;24.27;;;14.90;99.90;;;;;;5016058;28;20029;-78
2021/11/11 11:24:06;;;;;;;25.48;22.75;;;15.00;99.90;;;;;;5016117;28;20033;-78
2021/11/11 11:26:37;;;;;;;31.60;23.08;;;14.90;99.90;;;;;;5017556;28;20022;-79
2021/11/11 11:29:16;;;;;;;31.15;22.92;;;15.00;99.90;;;;;;5017107;28;20018;-78
2021/11/11 11:32:07;;;;;;;30.38;23.30;;;15.00;99.90;;;;;;5016272;28;20120;-80
2021/11/11 11:34:41;;;;;;;28.17;23.02;;;15.00;99.90;;;;;;5017404;28;20033;-80
2021/11/11 11:37:15;;;;;;;25.63;22.80;;;15.00;99.90;;;;;;5017120;28;20456;-79
2021/11/11 11:39:49;;;;;;;25.80;22.55;;;15.00;99.90;;;;;;5018131;28;20042;-79
2021/11/11 11:42:34;;;;;;;32.92;24.08;;;14.90;99.90;;;;;;5015209;28;20033;-79
2021/11/11 11:45:13;;;;;;;28.23;23.42;;;15.00;99.90;;;;;;5016327;28;20068;-80
2021/11/11 11:50:16;;;;;;;30.77;24.10;;;14.90;99.90;;;;;;5016382;28;20376;-79
2021/11/11 11:52:48;;;;;;;32.13;24.02;;;14.90;99.90;;;;;;5017281;28;20031;-79
2021/11/11 11:55:24;;;;;;;34.22;23.75;;;15.00;99.90;;;;;;5015656;28;20030;-78
2021/11/11 11:58:30;;;;;;;29.75;23.23;;;14.90;99.90;;;;;;5015857;28;20030;-78
2021/11/11 12:01:15;;;;;;;30.73;22.55;;;14.90;99.90;;;;;;5012362;28;20149;-78
2021/11/11 12:04:03;;;;;;;26.67;22.38;;;14.90;99.90;;;;;;5014592;28;20028;-78
2021/11/11 12:06:52;;;;;;;26.98;22.70;;;14.40;99.90;;;;;;5014901;28;20506;-78
2021/11/11 12:09:51;;;;;;;24.77;22.33;;;14.70;99.90;;;;;;5014470;28;20022;-78
2021/11/11 12:15:33;;;;;;;32.83;23.35;;;14.60;99.90;;;;;;5015842;28;20036;-78
2021/11/11 12:29:54;;;;;;;26.20;23.85;;;14.00;99.90;;;;;;5015953;28;20040;-78
2021/11/11 12:38:47;;;;;;;27.27;25.00;;;13.70;99.90;;;;;;5015449;28;20518;-78
2021/11/11 12:41:19;;;;;;;26.83;24.48;;;13.70;99.90;;;;;;5013856;28;20022;-77
2021/11/11 12:44:11;;;;;;;28.17;25.38;;;13.60;99.90;;;;;;5015033;28;20026;-77
2021/11/11 12:46:47;;;;;;;27.98;25.13;;;13.70;99.90;;;;;;5014831;28;20017;-77
2021/11/11 12:49:34;;;;;;;27.45;24.63;;;13.60;99.90;;;;;;5014957;28;20021;-77
2021/11/11 12:52:28;;;;;;;26.33;23.50;;;13.60;99.90;;;;;;5015421;28;20052;-77
2021/11/11 12:55:19;;;;;;;25.65;23.33;;;13.50;99.90;;;;;;5012901;28;20113;-78
2021/11/11 12:57:59;;;;;;;26.05;23.48;;;13.50;99.90;;;;;;5015173;28;20415;-78
2021/11/11 13:00:38;;;;;;;25.77;23.58;;;13.60;99.90;;;;;;5013445;28;20049;-77
2021/11/11 13:03:07;;;;;;;26.35;23.33;;;13.50;99.90;;;;;;5015140;28;20021;-77
2021/11/11 13:05:54;;;;;;;26.38;23.90;;;13.40;99.90;;;;;;5013674;28;20030;-77
2021/11/11 13:08:44;;;;;;;26.25;23.77;;;13.50;99.90;;;;;;5015238;28;20371;-78
2021/11/11 13:11:12;;;;;;;28.73;24.35;;;13.50;99.90;;;;;;5000775;28;20030;-77
2021/11/11 13:13:40;;;;;;;27.42;24.80;;;13.40;99.90;;;;;;5013409;28;20546;-77
2021/11/11 13:16:16;;;;;;;26.90;24.67;;;13.40;99.90;;;;;;5014804;28;20066;-77
2021/11/11 13:18:52;;;;;;;28.02;25.27;;;13.40;99.90;;;;;;5015018;28;20022;-77
2021/11/11 14:00:54;;;;;;;28.08;25.52;;;13.40;99.90;;;;;;5018422;28;20095;-78
2021/11/11 15:57:14;;;;;;;28.65;26.38;;;14.10;99.90;;;;;;5016305;28;20609;-78
2021/11/11 16:22:07;;;;;;;29.25;27.10;;;14.30;99.90;;;;;;5014787;28;20076;-78
2021/11/11 16:24:47;;;;;;;29.70;27.27;;;14.30;99.90;;;;;;5014420;28;20054;-77
2021/11/11 16:27:17;;;;;;;28.95;26.67;;;14.30;99.90;;;;;;5015384;28;20018;-77